WAT9221 KAUS-KHRL
Flight info
| Callsign | WAT9221 |
|---|---|
| Flight time | 0h 43m |
| Altitude | 31000 |
| Route | BNDIA3 BNDIA ICEMN J25 CRP/N0454F300 |
| Aircraft | A320/M-SDE3FGHIRWY/LB1 |
Departure
| Time | 2026-05-05 21:30 |
|---|---|
| Airport | Austin Bergstrom International Airport (KAUS) |
Arrival
| Time | 2026-05-05 22:13 |
|---|---|
| Airport | Valley International Airport (KHRL) |
| Time | Latitude | Longitude | Altitude | Speed | Heading |
|---|---|---|---|---|---|
| 2026-05-05 21:13 | 30.20161 | -97.66855 | 501 ft | 0 kts | 12° |
| 2026-05-05 21:23 | 30.20154 | -97.66857 | 501 ft | 2 kts | 12° |
| 2026-05-05 21:23 | 30.20137 | -97.66861 | 501 ft | 2 kts | 12° |
| 2026-05-05 21:23 | 30.20121 | -97.66865 | 501 ft | 2 kts | 12° |
| 2026-05-05 21:23 | 30.20105 | -97.66865 | 501 ft | 2 kts | 1° |
| 2026-05-05 21:24 | 30.20089 | -97.66872 | 501 ft | 2 kts | 72° |
| 2026-05-05 21:24 | 30.20088 | -97.66876 | 501 ft | 0 kts | 88° |
| 2026-05-05 21:26 | 30.20087 | -97.66869 | 501 ft | 2 kts | 92° |
| 2026-05-05 21:26 | 30.20085 | -97.66843 | 501 ft | 5 kts | 96° |
| 2026-05-05 21:26 | 30.20063 | -97.66765 | 501 ft | 15 kts | 123° |
| 2026-05-05 21:26 | 30.19974 | -97.66694 | 501 ft | 17 kts | 165° |
| 2026-05-05 21:27 | 30.19906 | -97.66601 | 501 ft | 18 kts | 89° |
| 2026-05-05 21:27 | 30.19909 | -97.66451 | 501 ft | 20 kts | 87° |
| 2026-05-05 21:27 | 30.19916 | -97.66282 | 489 ft | 23 kts | 88° |
| 2026-05-05 21:27 | 30.19919 | -97.66080 | 490 ft | 27 kts | 90° |
| 2026-05-05 21:28 | 30.19946 | -97.65923 | 486 ft | 17 kts | 37° |
| 2026-05-05 21:28 | 30.20066 | -97.65907 | 486 ft | 18 kts | 357° |
| 2026-05-05 21:28 | 30.20197 | -97.65913 | 486 ft | 19 kts | 358° |
| 2026-05-05 21:28 | 30.20335 | -97.65913 | 489 ft | 19 kts | 14° |
| 2026-05-05 21:29 | 30.20361 | -97.65807 | 481 ft | 12 kts | 132° |
| 2026-05-05 21:29 | 30.20267 | -97.65783 | 476 ft | 18 kts | 177° |
| 2026-05-05 21:29 | 30.19944 | -97.65775 | 482 ft | 79 kts | 179° |
| 2026-05-05 21:29 | 30.19204 | -97.65756 | 487 ft | 130 kts | 178° |
| 2026-05-05 21:30 | 30.18171 | -97.65730 | 677 ft | 156 kts | 179° |
| 2026-05-05 21:30 | 30.17082 | -97.65697 | 1365 ft | 157 kts | 180° |
| 2026-05-05 21:30 | 30.15990 | -97.65652 | 2065 ft | 157 kts | 178° |
| 2026-05-05 21:30 | 30.14869 | -97.65648 | 2481 ft | 171 kts | 190° |
| 2026-05-05 21:31 | 30.13799 | -97.66386 | 2776 ft | 200 kts | 230° |
| 2026-05-05 21:31 | 30.13174 | -97.67913 | 3166 ft | 221 kts | 245° |
| 2026-05-05 21:31 | 30.12632 | -97.69678 | 3563 ft | 245 kts | 248° |
| 2026-05-05 21:31 | 30.12074 | -97.71609 | 4251 ft | 257 kts | 248° |
| 2026-05-05 21:32 | 30.11509 | -97.73583 | 5206 ft | 260 kts | 249° |
| 2026-05-05 21:32 | 30.10934 | -97.75571 | 6213 ft | 261 kts | 250° |
| 2026-05-05 21:32 | 30.10353 | -97.77559 | 7137 ft | 263 kts | 250° |
| 2026-05-05 21:32 | 30.09757 | -97.79574 | 8020 ft | 267 kts | 250° |
| 2026-05-05 21:33 | 30.09149 | -97.81610 | 8912 ft | 270 kts | 249° |
| 2026-05-05 21:33 | 30.08527 | -97.83679 | 9793 ft | 274 kts | 249° |
| 2026-05-05 21:33 | 30.07890 | -97.85789 | 10444 ft | 287 kts | 249° |
| 2026-05-05 21:33 | 30.07203 | -97.88052 | 10751 ft | 311 kts | 250° |
| 2026-05-05 21:34 | 30.06462 | -97.90491 | 11082 ft | 332 kts | 250° |
| 2026-05-05 21:34 | 30.05692 | -97.92963 | 11743 ft | 339 kts | 246° |
| 2026-05-05 21:34 | 30.04557 | -97.95360 | 12589 ft | 343 kts | 235° |
| 2026-05-05 21:34 | 30.03013 | -97.97468 | 13497 ft | 346 kts | 229° |
| 2026-05-05 21:35 | 30.01387 | -97.99518 | 14331 ft | 347 kts | 229° |
| 2026-05-05 21:35 | 29.99758 | -98.01571 | 14908 ft | 348 kts | 230° |
| 2026-05-05 21:35 | 29.98118 | -98.03647 | 15459 ft | 350 kts | 230° |
| 2026-05-05 21:35 | 29.96494 | -98.05706 | 15999 ft | 353 kts | 230° |
| 2026-05-05 21:36 | 29.94839 | -98.07803 | 16543 ft | 355 kts | 230° |
| 2026-05-05 21:36 | 29.93171 | -98.09916 | 17118 ft | 357 kts | 230° |
| 2026-05-05 21:36 | 29.91489 | -98.12040 | 17674 ft | 360 kts | 230° |
| 2026-05-05 21:36 | 29.89792 | -98.14180 | 18231 ft | 363 kts | 230° |
| 2026-05-05 21:37 | 29.88081 | -98.16339 | 18764 ft | 365 kts | 230° |
| 2026-05-05 21:37 | 29.86364 | -98.18508 | 19312 ft | 366 kts | 230° |
| 2026-05-05 21:37 | 29.84648 | -98.20677 | 19828 ft | 368 kts | 230° |
| 2026-05-05 21:37 | 29.82912 | -98.22868 | 20350 ft | 370 kts | 231° |
| 2026-05-05 21:38 | 29.81175 | -98.25058 | 20863 ft | 372 kts | 231° |
| 2026-05-05 21:38 | 29.79427 | -98.27263 | 21368 ft | 373 kts | 231° |
| 2026-05-05 21:38 | 29.77666 | -98.29475 | 21847 ft | 375 kts | 231° |
| 2026-05-05 21:38 | 29.75904 | -98.31689 | 22336 ft | 376 kts | 231° |
| 2026-05-05 21:39 | 29.74132 | -98.33917 | 22856 ft | 378 kts | 232° |
| 2026-05-05 21:39 | 29.72356 | -98.36151 | 23339 ft | 379 kts | 232° |
| 2026-05-05 21:39 | 29.70575 | -98.38388 | 23726 ft | 380 kts | 232° |
| 2026-05-05 21:39 | 29.68788 | -98.40629 | 24091 ft | 381 kts | 232° |
| 2026-05-05 21:40 | 29.66871 | -98.42761 | 24457 ft | 388 kts | 223° |
| 2026-05-05 21:40 | 29.64527 | -98.44380 | 24909 ft | 400 kts | 211° |
| 2026-05-05 21:40 | 29.61829 | -98.45334 | 25280 ft | 415 kts | 198° |
| 2026-05-05 21:40 | 29.58883 | -98.45480 | 25616 ft | 434 kts | 184° |
| 2026-05-05 21:41 | 29.55908 | -98.45124 | 25935 ft | 438 kts | 183° |
| 2026-05-05 21:41 | 29.52874 | -98.44748 | 26182 ft | 440 kts | 183° |
| 2026-05-05 21:41 | 29.49825 | -98.44372 | 26504 ft | 442 kts | 183° |
| 2026-05-05 21:41 | 29.46767 | -98.43999 | 26830 ft | 443 kts | 183° |
| 2026-05-05 21:42 | 29.43690 | -98.43627 | 27165 ft | 445 kts | 184° |
| 2026-05-05 21:42 | 29.40604 | -98.43260 | 27467 ft | 447 kts | 184° |
| 2026-05-05 21:42 | 29.37501 | -98.42893 | 27773 ft | 449 kts | 184° |
| 2026-05-05 21:42 | 29.34387 | -98.42524 | 28058 ft | 451 kts | 184° |
| 2026-05-05 21:43 | 29.31262 | -98.42153 | 28388 ft | 451 kts | 184° |
| 2026-05-05 21:43 | 29.28140 | -98.41779 | 28828 ft | 450 kts | 184° |
| 2026-05-05 21:43 | 29.25035 | -98.41406 | 29232 ft | 449 kts | 184° |
| 2026-05-05 21:43 | 29.21927 | -98.41033 | 29659 ft | 448 kts | 184° |
| 2026-05-05 21:44 | 29.18828 | -98.40663 | 30060 ft | 447 kts | 184° |
| 2026-05-05 21:44 | 29.15745 | -98.40296 | 30454 ft | 445 kts | 184° |
| 2026-05-05 21:44 | 29.12657 | -98.39927 | 30689 ft | 445 kts | 184° |
| 2026-05-05 21:44 | 29.09581 | -98.39561 | 30757 ft | 446 kts | 184° |
| 2026-05-05 21:45 | 29.03384 | -98.38832 | 30761 ft | 447 kts | 184° |
| 2026-05-05 21:45 | 28.97188 | -98.38101 | 30751 ft | 448 kts | 184° |
| 2026-05-05 21:46 | 28.91023 | -98.37371 | 30766 ft | 449 kts | 184° |
| 2026-05-05 21:46 | 28.84806 | -98.36628 | 30772 ft | 449 kts | 184° |
| 2026-05-05 21:47 | 28.78586 | -98.35884 | 30776 ft | 449 kts | 184° |
| 2026-05-05 21:47 | 28.72369 | -98.35150 | 30785 ft | 449 kts | 184° |
| 2026-05-05 21:48 | 28.66152 | -98.34426 | 30762 ft | 449 kts | 184° |
| 2026-05-05 21:48 | 28.59932 | -98.33697 | 30741 ft | 450 kts | 182° |
| 2026-05-05 21:49 | 28.56821 | -98.33022 | 30742 ft | 462 kts | 174° |
| 2026-05-05 21:49 | 28.53715 | -98.32027 | 30744 ft | 463 kts | 174° |
| 2026-05-05 21:49 | 28.47508 | -98.30045 | 30755 ft | 463 kts | 174° |
| 2026-05-05 21:50 | 28.41300 | -98.28069 | 30758 ft | 464 kts | 174° |
| 2026-05-05 21:50 | 28.35130 | -98.26099 | 30753 ft | 464 kts | 173° |
| 2026-05-05 21:51 | 28.28921 | -98.24131 | 30766 ft | 463 kts | 173° |
| 2026-05-05 21:51 | 28.22710 | -98.22166 | 30771 ft | 464 kts | 173° |
| 2026-05-05 21:52 | 28.13383 | -98.19203 | 30761 ft | 463 kts | 173° |
| 2026-05-05 21:53 | 28.07176 | -98.17239 | 30755 ft | 463 kts | 173° |
| 2026-05-05 21:53 | 28.00959 | -98.15281 | 30772 ft | 463 kts | 173° |
| 2026-05-05 21:54 | 27.94752 | -98.13323 | 30793 ft | 463 kts | 173° |
| 2026-05-05 21:54 | 27.88544 | -98.11357 | 30796 ft | 463 kts | 173° |
| 2026-05-05 21:55 | 27.82333 | -98.09396 | 30779 ft | 463 kts | 173° |
| 2026-05-05 21:55 | 27.76167 | -98.07465 | 30767 ft | 463 kts | 172° |
| 2026-05-05 21:55 | 27.73060 | -98.06495 | 30626 ft | 463 kts | 172° |
| 2026-05-05 21:56 | 27.69961 | -98.05523 | 30317 ft | 462 kts | 172° |
| 2026-05-05 21:56 | 27.66845 | -98.04547 | 29174 ft | 468 kts | 172° |
| 2026-05-05 21:56 | 27.63689 | -98.03563 | 28029 ft | 472 kts | 172° |
| 2026-05-05 21:56 | 27.60511 | -98.02570 | 26976 ft | 474 kts | 171° |
| 2026-05-05 21:57 | 27.57352 | -98.01576 | 26325 ft | 468 kts | 171° |
| 2026-05-05 21:57 | 27.54237 | -98.00593 | 25589 ft | 463 kts | 171° |
| 2026-05-05 21:57 | 27.51143 | -97.99616 | 24870 ft | 459 kts | 171° |
| 2026-05-05 21:57 | 27.48076 | -97.98649 | 24144 ft | 456 kts | 171° |
| 2026-05-05 21:58 | 27.45027 | -97.97695 | 23438 ft | 453 kts | 171° |
| 2026-05-05 21:58 | 27.41995 | -97.96751 | 22633 ft | 450 kts | 171° |
| 2026-05-05 21:58 | 27.38995 | -97.95818 | 21949 ft | 445 kts | 170° |
| 2026-05-05 21:58 | 27.36021 | -97.94895 | 21252 ft | 441 kts | 170° |
| 2026-05-05 21:59 | 27.33072 | -97.93981 | 20566 ft | 438 kts | 170° |
| 2026-05-05 21:59 | 27.30151 | -97.93073 | 19906 ft | 434 kts | 170° |
| 2026-05-05 21:59 | 27.27254 | -97.92170 | 19268 ft | 430 kts | 169° |
| 2026-05-05 21:59 | 27.24374 | -97.91268 | 18633 ft | 427 kts | 169° |
| 2026-05-05 22:00 | 27.21515 | -97.90376 | 18054 ft | 424 kts | 169° |
| 2026-05-05 22:00 | 27.19637 | -97.89793 | 17617 ft | 422 kts | 169° |
| 2026-05-05 22:00 | 27.16819 | -97.88920 | 17038 ft | 418 kts | 169° |
| 2026-05-05 22:00 | 27.13124 | -97.87770 | 16265 ft | 414 kts | 169° |
| 2026-05-05 22:01 | 27.10355 | -97.86909 | 15672 ft | 412 kts | 168° |
| 2026-05-05 22:01 | 27.07601 | -97.86056 | 15062 ft | 409 kts | 168° |
| 2026-05-05 22:01 | 27.04859 | -97.85207 | 14440 ft | 407 kts | 168° |
| 2026-05-05 22:01 | 27.02131 | -97.84363 | 13815 ft | 405 kts | 168° |
| 2026-05-05 22:02 | 27.00334 | -97.83807 | 13368 ft | 405 kts | 168° |
| 2026-05-05 22:02 | 26.97629 | -97.82970 | 12746 ft | 401 kts | 168° |
| 2026-05-05 22:02 | 26.94980 | -97.82147 | 12288 ft | 391 kts | 168° |
| 2026-05-05 22:02 | 26.92371 | -97.81335 | 11656 ft | 387 kts | 167° |
| 2026-05-05 22:03 | 26.89787 | -97.80536 | 11013 ft | 383 kts | 168° |
| 2026-05-05 22:03 | 26.87259 | -97.79757 | 10790 ft | 368 kts | 168° |
| 2026-05-05 22:03 | 26.84845 | -97.79010 | 10669 ft | 352 kts | 168° |
| 2026-05-05 22:03 | 26.82540 | -97.78296 | 10555 ft | 337 kts | 167° |
| 2026-05-05 22:04 | 26.80324 | -97.77611 | 10439 ft | 324 kts | 167° |
| 2026-05-05 22:04 | 26.78195 | -97.76951 | 10324 ft | 312 kts | 168° |
| 2026-05-05 22:04 | 26.76139 | -97.76315 | 10205 ft | 302 kts | 168° |
| 2026-05-05 22:04 | 26.74138 | -97.75700 | 10003 ft | 295 kts | 167° |
| 2026-05-05 22:05 | 26.72167 | -97.75096 | 9654 ft | 298 kts | 168° |
| 2026-05-05 22:05 | 26.70171 | -97.74483 | 9353 ft | 294 kts | 167° |
| 2026-05-05 22:05 | 26.68210 | -97.73880 | 9065 ft | 291 kts | 167° |
| 2026-05-05 22:05 | 26.66257 | -97.73281 | 8690 ft | 290 kts | 168° |
| 2026-05-05 22:06 | 26.64310 | -97.72683 | 8336 ft | 290 kts | 167° |
| 2026-05-05 22:06 | 26.62375 | -97.72089 | 8012 ft | 287 kts | 167° |
| 2026-05-05 22:06 | 26.60452 | -97.71498 | 7684 ft | 286 kts | 168° |
| 2026-05-05 22:06 | 26.58548 | -97.70913 | 7376 ft | 283 kts | 167° |
| 2026-05-05 22:07 | 26.56647 | -97.70325 | 7022 ft | 283 kts | 168° |
| 2026-05-05 22:07 | 26.54750 | -97.69742 | 6661 ft | 283 kts | 167° |
| 2026-05-05 22:07 | 26.52864 | -97.69165 | 6197 ft | 279 kts | 167° |
| 2026-05-05 22:07 | 26.50989 | -97.68592 | 5513 ft | 280 kts | 168° |
| 2026-05-05 22:08 | 26.49103 | -97.68015 | 4811 ft | 282 kts | 167° |
| 2026-05-05 22:08 | 26.47200 | -97.67432 | 4103 ft | 283 kts | 167° |
| 2026-05-05 22:08 | 26.45368 | -97.66870 | 3783 ft | 269 kts | 166° |
| 2026-05-05 22:08 | 26.43633 | -97.66334 | 3641 ft | 249 kts | 166° |
| 2026-05-05 22:09 | 26.42062 | -97.65851 | 3516 ft | 218 kts | 167° |
| 2026-05-05 22:09 | 26.40632 | -97.65660 | 3184 ft | 198 kts | 179° |
| 2026-05-05 22:09 | 26.39320 | -97.65666 | 2915 ft | 179 kts | 180° |
| 2026-05-05 22:09 | 26.38120 | -97.65683 | 2734 ft | 167 kts | 178° |
| 2026-05-05 22:10 | 26.36964 | -97.65697 | 2486 ft | 164 kts | 178° |
| 2026-05-05 22:10 | 26.35837 | -97.65712 | 2275 ft | 161 kts | 178° |
| 2026-05-05 22:10 | 26.34731 | -97.65726 | 2069 ft | 156 kts | 178° |
| 2026-05-05 22:10 | 26.33643 | -97.65739 | 1866 ft | 158 kts | 178° |
| 2026-05-05 22:11 | 26.32548 | -97.65752 | 1672 ft | 157 kts | 177° |
| 2026-05-05 22:11 | 26.31463 | -97.65765 | 1468 ft | 157 kts | 178° |
| 2026-05-05 22:11 | 26.30378 | -97.65779 | 1269 ft | 154 kts | 179° |
| 2026-05-05 22:11 | 26.29362 | -97.65792 | 1080 ft | 137 kts | 176° |
| 2026-05-05 22:12 | 26.28426 | -97.65804 | 919 ft | 135 kts | 176° |
| 2026-05-05 22:12 | 26.27500 | -97.65815 | 745 ft | 134 kts | 177° |
| 2026-05-05 22:12 | 26.26582 | -97.65826 | 596 ft | 130 kts | 178° |
| 2026-05-05 22:12 | 26.25671 | -97.65837 | 409 ft | 131 kts | 177° |
| 2026-05-05 22:13 | 26.24757 | -97.65848 | 234 ft | 133 kts | 178° |
| 2026-05-05 22:13 | 26.23845 | -97.65860 | 63 ft | 130 kts | 177° |
| 2026-05-05 22:13 | 26.23035 | -97.65869 | 42 ft | 92 kts | 183° |
| 2026-05-05 22:13 | 26.22637 | -97.65883 | 45 ft | 49 kts | 179° |
| 2026-05-05 22:14 | 26.22424 | -97.65878 | 46 ft | 19 kts | 181° |
| 2026-05-05 22:14 | 26.22375 | -97.65966 | 45 ft | 15 kts | 263° |
| 2026-05-05 22:14 | 26.22350 | -97.66090 | 43 ft | 18 kts | 265° |
| 2026-05-05 22:14 | 26.22349 | -97.66134 | 45 ft | 0 kts | 270° |